sensor_id;sensor_type;location;lat;lon;timestamp;pressure;altitude;pressure_sealevel;temperature;humidity
66547;BME280;53400;50.364;14.874;2023-06-01T00:01:02;98920.63;;;16.00;61.62
66547;BME280;53400;50.364;14.874;2023-06-01T00:03:42;98917.16;;;15.53;61.97
66547;BME280;53400;50.364;14.874;2023-06-01T00:06:10;98911.75;;;15.53;64.33
66547;BME280;53400;50.364;14.874;2023-06-01T00:08:36;98922.78;;;15.36;61.99
66547;BME280;53400;50.364;14.874;2023-06-01T00:11:03;98918.22;;;15.47;64.56
66547;BME280;53400;50.364;14.874;2023-06-01T00:13:29;98919.31;;;15.41;65.08
66547;BME280;53400;50.364;14.874;2023-06-01T00:15:56;98910.66;;;15.19;64.60
66547;BME280;53400;50.364;14.874;2023-06-01T00:18:22;98911.94;;;14.96;64.83
66547;BME280;53400;50.364;14.874;2023-06-01T00:20:48;98922.75;;;15.06;66.00
66547;BME280;53400;50.364;14.874;2023-06-01T00:23:13;98913.81;;;14.80;66.44
66547;BME280;53400;50.364;14.874;2023-06-01T00:25:41;98919.19;;;14.80;65.88
66547;BME280;53400;50.364;14.874;2023-06-01T00:28:08;98912.22;;;14.89;66.18
66547;BME280;53400;50.364;14.874;2023-06-01T00:30:34;98910.31;;;14.79;66.16
66547;BME280;53400;50.364;14.874;2023-06-01T00:33:00;98902.69;;;14.66;66.55
66547;BME280;53400;50.364;14.874;2023-06-01T00:35:27;98901.91;;;14.71;66.06
66547;BME280;53400;50.364;14.874;2023-06-01T00:37:53;98901.34;;;14.58;67.33
66547;BME280;53400;50.364;14.874;2023-06-01T00:40:19;98903.94;;;14.43;67.36
66547;BME280;53400;50.364;14.874;2023-06-01T00:42:45;98905.00;;;14.37;67.59
66547;BME280;53400;50.364;14.874;2023-06-01T00:45:12;98895.78;;;14.33;67.73
66547;BME280;53400;50.364;14.874;2023-06-01T00:47:39;98903.94;;;14.43;66.42
66547;BME280;53400;50.364;14.874;2023-06-01T00:50:07;98900.66;;;14.36;67.99
66547;BME280;53400;50.364;14.874;2023-06-01T00:52:35;98896.69;;;14.49;68.06
66547;BME280;53400;50.364;14.874;2023-06-01T00:55:01;98900.41;;;14.37;67.89
66547;BME280;53400;50.364;14.874;2023-06-01T00:57:27;98898.75;;;14.31;68.08
66547;BME280;53400;50.364;14.874;2023-06-01T00:59:54;98888.97;;;14.15;70.13
66547;BME280;53400;50.364;14.874;2023-06-01T01:02:22;98892.69;;;14.04;69.47
66547;BME280;53400;50.364;14.874;2023-06-01T01:04:49;98896.44;;;13.97;70.45
66547;BME280;53400;50.364;14.874;2023-06-01T01:07:21;98900.41;;;13.90;70.88
66547;BME280;53400;50.364;14.874;2023-06-01T01:09:56;98900.78;;;13.66;71.46
66547;BME280;53400;50.364;14.874;2023-06-01T01:12:28;98894.97;;;13.42;72.93
66547;BME280;53400;50.364;14.874;2023-06-01T01:15:04;98894.66;;;13.39;71.68
66547;BME280;53400;50.364;14.874;2023-06-01T01:17:37;98897.38;;;13.17;72.70
66547;BME280;53400;50.364;14.874;2023-06-01T01:20:14;98890.78;;;13.02;74.00
66547;BME280;53400;50.364;14.874;2023-06-01T01:25:52;98895.94;;;13.04;72.84
66547;BME280;53400;50.364;14.874;2023-06-01T01:28:32;98888.09;;;13.02;74.34
66547;BME280;53400;50.364;14.874;2023-06-01T01:30:59;98890.59;;;13.09;74.14
66547;BME280;53400;50.364;14.874;2023-06-01T01:33:27;98889.47;;;13.05;73.99
66547;BME280;53400;50.364;14.874;2023-06-01T01:35:55;98892.22;;;13.10;72.68
66547;BME280;53400;50.364;14.874;2023-06-01T01:38:22;98884.59;;;13.02;73.03
66547;BME280;53400;50.364;14.874;2023-06-01T01:40:48;98885.81;;;12.89;74.13
66547;BME280;53400;50.364;14.874;2023-06-01T01:43:15;98877.84;;;12.99;73.78
66547;BME280;53400;50.364;14.874;2023-06-01T01:45:43;98882.19;;;13.00;74.57
66547;BME280;53400;50.364;14.874;2023-06-01T01:48:17;98883.19;;;12.67;76.38
66547;BME280;53400;50.364;14.874;2023-06-01T01:50:50;98888.47;;;12.57;75.53
66547;BME280;53400;50.364;14.874;2023-06-01T01:53:17;98880.38;;;12.35;77.80
66547;BME280;53400;50.364;14.874;2023-06-01T01:55:45;98885.75;;;12.35;77.48
66547;BME280;53400;50.364;14.874;2023-06-01T01:58:12;98884.22;;;12.39;77.04
66547;BME280;53400;50.364;14.874;2023-06-01T02:00:39;98874.78;;;12.36;77.42
66547;BME280;53400;50.364;14.874;2023-06-01T02:03:12;98884.03;;;12.24;77.67
66547;BME280;53400;50.364;14.874;2023-06-01T02:05:39;98882.69;;;12.26;77.71
66547;BME280;53400;50.364;14.874;2023-06-01T02:08:04;98875.50;;;12.10;78.22
66547;BME280;53400;50.364;14.874;2023-06-01T02:10:31;98879.38;;;11.97;78.24
66547;BME280;53400;50.364;14.874;2023-06-01T02:12:57;98878.56;;;12.19;77.47
66547;BME280;53400;50.364;14.874;2023-06-01T02:15:23;98887.44;;;12.19;77.25
66547;BME280;53400;50.364;14.874;2023-06-01T02:17:49;98880.56;;;12.06;77.40
66547;BME280;53400;50.364;14.874;2023-06-01T02:20:17;98880.25;;;12.03;76.93
66547;BME280;53400;50.364;14.874;2023-06-01T02:22:43;98880.78;;;12.05;77.24
66547;BME280;53400;50.364;14.874;2023-06-01T02:25:09;98878.28;;;11.98;76.71
66547;BME280;53400;50.364;14.874;2023-06-01T02:27:34;98880.28;;;11.86;77.68
66547;BME280;53400;50.364;14.874;2023-06-01T02:30:01;98877.09;;;11.72;77.67
66547;BME280;53400;50.364;14.874;2023-06-01T02:32:27;98873.13;;;11.58;77.31
66547;BME280;53400;50.364;14.874;2023-06-01T02:34:53;98875.19;;;11.51;77.82
66547;BME280;53400;50.364;14.874;2023-06-01T02:37:20;98870.69;;;11.39;78.61
66547;BME280;53400;50.364;14.874;2023-06-01T02:39:46;98868.09;;;11.44;77.95
66547;BME280;53400;50.364;14.874;2023-06-01T02:42:13;98874.28;;;11.45;77.95
66547;BME280;53400;50.364;14.874;2023-06-01T02:44:39;98874.00;;;11.13;79.39
66547;BME280;53400;50.364;14.874;2023-06-01T02:47:06;98872.09;;;11.42;78.02
66547;BME280;53400;50.364;14.874;2023-06-01T02:49:32;98874.84;;;11.64;76.41
66547;BME280;53400;50.364;14.874;2023-06-01T02:51:58;98872.13;;;11.81;75.71
66547;BME280;53400;50.364;14.874;2023-06-01T02:54:25;98872.88;;;11.76;74.09
66547;BME280;53400;50.364;14.874;2023-06-01T02:56:51;98872.97;;;11.64;75.78
66547;BME280;53400;50.364;14.874;2023-06-01T02:59:17;98865.88;;;11.58;76.61
66547;BME280;53400;50.364;14.874;2023-06-01T03:01:43;98869.13;;;11.77;75.51
66547;BME280;53400;50.364;14.874;2023-06-01T03:04:09;98871.06;;;11.65;74.88
66547;BME280;53400;50.364;14.874;2023-06-01T03:06:37;98865.41;;;11.61;75.70
66547;BME280;53400;50.364;14.874;2023-06-01T03:09:03;98862.72;;;11.61;76.23
66547;BME280;53400;50.364;14.874;2023-06-01T03:11:30;98864.03;;;11.25;77.68
66547;BME280;53400;50.364;14.874;2023-06-01T03:13:56;98861.47;;;11.01;79.20
66547;BME280;53400;50.364;14.874;2023-06-01T03:16:22;98862.34;;;11.36;75.77
66547;BME280;53400;50.364;14.874;2023-06-01T03:18:48;98864.09;;;11.64;74.76
66547;BME280;53400;50.364;14.874;2023-06-01T03:21:14;98866.53;;;11.65;75.76
66547;BME280;53400;50.364;14.874;2023-06-01T03:23:42;98867.50;;;11.59;76.44
66547;BME280;53400;50.364;14.874;2023-06-01T03:26:09;98870.34;;;11.69;75.35
66547;BME280;53400;50.364;14.874;2023-06-01T03:28:37;98870.91;;;12.05;72.81
66547;BME280;53400;50.364;14.874;2023-06-01T03:31:04;98871.09;;;12.21;73.33
66547;BME280;53400;50.364;14.874;2023-06-01T03:33:30;98865.97;;;12.19;71.06
66547;BME280;53400;50.364;14.874;2023-06-01T03:35:55;98873.00;;;12.25;72.45
66547;BME280;53400;50.364;14.874;2023-06-01T03:38:22;98865.16;;;12.40;72.14
66547;BME280;53400;50.364;14.874;2023-06-01T03:40:48;98867.22;;;12.33;72.32
66547;BME280;53400;50.364;14.874;2023-06-01T03:43:14;98859.00;;;12.23;71.39
66547;BME280;53400;50.364;14.874;2023-06-01T03:45:41;98853.81;;;12.38;71.56
66547;BME280;53400;50.364;14.874;2023-06-01T03:48:07;98856.22;;;12.57;71.01
66547;BME280;53400;50.364;14.874;2023-06-01T03:50:33;98858.59;;;12.80;71.15
66547;BME280;53400;50.364;14.874;2023-06-01T03:52:59;98856.03;;;12.91;71.99
66547;BME280;53400;50.364;14.874;2023-06-01T03:55:25;98852.41;;;12.80;71.67
66547;BME280;53400;50.364;14.874;2023-06-01T03:57:52;98851.44;;;12.91;71.43
66547;BME280;53400;50.364;14.874;2023-06-01T04:00:19;98854.13;;;13.18;70.45
66547;BME280;53400;50.364;14.874;2023-06-01T04:02:49;98851.59;;;13.34;69.90
66547;BME280;53400;50.364;14.874;2023-06-01T04:05:15;98850.28;;;13.41;69.69
66547;BME280;53400;50.364;14.874;2023-06-01T04:07:44;98848.41;;;13.42;69.98
66547;BME280;53400;50.364;14.874;2023-06-01T04:10:11;98846.19;;;13.34;69.00
66547;BME280;53400;50.364;14.874;2023-06-01T04:12:40;98844.03;;;13.30;70.01
66547;BME280;53400;50.364;14.874;2023-06-01T04:15:07;98845.91;;;13.30;68.95
66547;BME280;53400;50.364;14.874;2023-06-01T04:17:35;98841.22;;;12.88;70.03
66547;BME280;53400;50.364;14.874;2023-06-01T04:20:03;98849.16;;;13.05;70.45
66547;BME280;53400;50.364;14.874;2023-06-01T04:22:32;98849.13;;;13.27;69.87
66547;BME280;53400;50.364;14.874;2023-06-01T04:24:58;98845.19;;;13.13;70.68
66547;BME280;53400;50.364;14.874;2023-06-01T04:27:24;98841.81;;;13.60;69.11
66547;BME280;53400;50.364;14.874;2023-06-01T04:29:50;98848.50;;;13.52;69.80
66547;BME280;53400;50.364;14.874;2023-06-01T04:32:16;98847.97;;;12.91;71.66
66547;BME280;53400;50.364;14.874;2023-06-01T04:34:46;98847.06;;;13.44;69.87
66547;BME280;53400;50.364;14.874;2023-06-01T04:37:15;98853.94;;;13.62;68.95
66547;BME280;53400;50.364;14.874;2023-06-01T04:39:41;98853.03;;;13.19;71.51
66547;BME280;53400;50.364;14.874;2023-06-01T04:42:11;98848.63;;;13.08;72.99
66547;BME280;53400;50.364;14.874;2023-06-01T04:44:39;98847.59;;;13.09;72.81
66547;BME280;53400;50.364;14.874;2023-06-01T04:47:07;98843.22;;;13.30;74.26
66547;BME280;53400;50.364;14.874;2023-06-01T04:49:34;98841.03;;;13.69;71.84
66547;BME280;53400;50.364;14.874;2023-06-01T04:52:07;98848.81;;;14.08;71.20
66547;BME280;53400;50.364;14.874;2023-06-01T04:54:34;98847.56;;;13.73;72.23
66547;BME280;53400;50.364;14.874;2023-06-01T04:57:00;98844.47;;;13.54;72.40
66547;BME280;53400;50.364;14.874;2023-06-01T04:59:27;98841.94;;;14.38;71.33
66547;BME280;53400;50.364;14.874;2023-06-01T05:01:53;98838.66;;;14.26;71.75
66547;BME280;53400;50.364;14.874;2023-06-01T05:04:19;98840.31;;;14.37;70.15
66547;BME280;53400;50.364;14.874;2023-06-01T05:06:46;98846.09;;;14.71;70.04
66547;BME280;53400;50.364;14.874;2023-06-01T05:09:12;98839.97;;;15.06;69.09
66547;BME280;53400;50.364;14.874;2023-06-01T05:11:40;98840.75;;;15.32;67.68
66547;BME280;53400;50.364;14.874;2023-06-01T05:14:06;98851.03;;;15.76;67.04
66547;BME280;53400;50.364;14.874;2023-06-01T05:16:32;98847.94;;;16.03;65.16
66547;BME280;53400;50.364;14.874;2023-06-01T05:18:58;98855.00;;;16.04;64.85
66547;BME280;53400;50.364;14.874;2023-06-01T05:21:24;98849.66;;;15.48;66.87
66547;BME280;53400;50.364;14.874;2023-06-01T05:23:50;98847.88;;;16.29;65.04
66547;BME280;53400;50.364;14.874;2023-06-01T05:26:16;98851.41;;;16.84;63.57
66547;BME280;53400;50.364;14.874;2023-06-01T05:28:43;98847.00;;;16.99;62.72
66547;BME280;53400;50.364;14.874;2023-06-01T05:31:09;98850.28;;;17.59;61.01
66547;BME280;53400;50.364;14.874;2023-06-01T05:33:35;98845.00;;;17.73;60.45
66547;BME280;53400;50.364;14.874;2023-06-01T05:36:02;98841.94;;;18.08;59.72
66547;BME280;53400;50.364;14.874;2023-06-01T05:38:29;98847.41;;;18.27;60.14
66547;BME280;53400;50.364;14.874;2023-06-01T05:40:55;98843.47;;;18.82;59.14
66547;BME280;53400;50.364;14.874;2023-06-01T05:43:21;98842.38;;;18.83;56.89
66547;BME280;53400;50.364;14.874;2023-06-01T05:45:48;98840.25;;;18.55;57.88
66547;BME280;53400;50.364;14.874;2023-06-01T05:48:14;98829.13;;;18.57;58.88
66547;BME280;53400;50.364;14.874;2023-06-01T05:50:40;98828.81;;;18.40;58.82
66547;BME280;53400;50.364;14.874;2023-06-01T05:53:06;98844.88;;;17.88;59.88
66547;BME280;53400;50.364;14.874;2023-06-01T05:55:32;98835.22;;;18.68;58.96
66547;BME280;53400;50.364;14.874;2023-06-01T05:57:58;98830.31;;;19.27;57.09
66547;BME280;53400;50.364;14.874;2023-06-01T06:00:24;98830.34;;;19.87;56.25
66547;BME280;53400;50.364;14.874;2023-06-01T06:02:51;98832.28;;;20.00;54.14
66547;BME280;53400;50.364;14.874;2023-06-01T06:05:17;98824.00;;;20.05;53.31
66547;BME280;53400;50.364;14.874;2023-06-01T06:07:43;98821.31;;;20.69;53.83
66547;BME280;53400;50.364;14.874;2023-06-01T06:10:12;98829.81;;;20.54;53.24
66547;BME280;53400;50.364;14.874;2023-06-01T06:12:39;98827.00;;;20.95;50.95
66547;BME280;53400;50.364;14.874;2023-06-01T06:27:14;98820.66;;;21.76;51.69
66547;BME280;53400;50.364;14.874;2023-06-01T06:29:47;98828.78;;;22.07;50.88
66547;BME280;53400;50.364;14.874;2023-06-01T06:32:14;98828.88;;;22.25;50.49
66547;BME280;53400;50.364;14.874;2023-06-01T06:34:53;98827.03;;;22.68;50.76
66547;BME280;53400;50.364;14.874;2023-06-01T06:37:22;98832.03;;;22.93;49.34
66547;BME280;53400;50.364;14.874;2023-06-01T06:39:56;98833.00;;;22.97;48.72
66547;BME280;53400;50.364;14.874;2023-06-01T06:42:31;98829.78;;;23.12;47.42
66547;BME280;53400;50.364;14.874;2023-06-01T06:45:13;98828.03;;;23.16;47.46
66547;BME280;53400;50.364;14.874;2023-06-01T06:47:46;98823.66;;;23.41;48.10
66547;BME280;53400;50.364;14.874;2023-06-01T06:50:26;98826.50;;;23.71;47.94
66547;BME280;53400;50.364;14.874;2023-06-01T06:53:12;98827.19;;;23.97;46.94
66547;BME280;53400;50.364;14.874;2023-06-01T06:55:40;98824.59;;;24.31;45.93
66547;BME280;53400;50.364;14.874;2023-06-01T06:58:35;98829.28;;;23.92;46.15
66547;BME280;53400;50.364;14.874;2023-06-01T07:01:13;98820.56;;;23.51;47.25
66547;BME280;53400;50.364;14.874;2023-06-01T07:03:40;98817.69;;;23.48;48.21
66547;BME280;53400;50.364;14.874;2023-06-01T07:06:16;98823.25;;;23.77;47.54
66547;BME280;53400;50.364;14.874;2023-06-01T07:08:56;98821.84;;;24.01;48.62
66547;BME280;53400;50.364;14.874;2023-06-01T07:12:01;98823.38;;;24.19;47.43
66547;BME280;53400;50.364;14.874;2023-06-01T07:14:47;98830.50;;;24.50;47.03
66547;BME280;53400;50.364;14.874;2023-06-01T07:21:50;98820.41;;;24.03;46.38
66547;BME280;53400;50.364;14.874;2023-06-01T07:24:46;98825.47;;;24.52;47.42
66547;BME280;53400;50.364;14.874;2023-06-01T07:27:28;98823.38;;;24.19;47.44
66547;BME280;53400;50.364;14.874;2023-06-01T07:33:12;98820.72;;;25.03;45.80
66547;BME280;53400;50.364;14.874;2023-06-01T07:35:40;98808.69;;;25.16;45.25
66547;BME280;53400;50.364;14.874;2023-06-01T07:38:07;98814.88;;;25.59;43.70
66547;BME280;53400;50.364;14.874;2023-06-01T07:40:40;98818.19;;;24.77;46.40
66547;BME280;53400;50.364;14.874;2023-06-01T07:43:10;98809.25;;;24.89;46.31
66547;BME280;53400;50.364;14.874;2023-06-01T07:45:53;98817.69;;;24.63;46.60
66547;BME280;53400;50.364;14.874;2023-06-01T07:48:25;98803.78;;;24.47;46.14
66547;BME280;53400;50.364;14.874;2023-06-01T07:50:58;98803.75;;;24.89;44.07
66547;BME280;53400;50.364;14.874;2023-06-01T07:53:43;98805.56;;;25.06;43.73
66547;BME280;53400;50.364;14.874;2023-06-01T07:56:10;98802.97;;;25.43;44.21
66547;BME280;53400;50.364;14.874;2023-06-01T07:58:40;98796.88;;;25.25;45.17
66547;BME280;53400;50.364;14.874;2023-06-01T08:01:07;98805.03;;;24.91;45.66
66547;BME280;53400;50.364;14.874;2023-06-01T08:03:50;98799.59;;;25.25;45.27
66547;BME280;53400;50.364;14.874;2023-06-01T08:06:18;98799.63;;;25.82;43.57
66547;BME280;53400;50.364;14.874;2023-06-01T08:08:48;98793.56;;;26.14;44.12
66547;BME280;53400;50.364;14.874;2023-06-01T08:11:23;98802.16;;;26.24;45.91
66547;BME280;53400;50.364;14.874;2023-06-01T08:14:11;98801.91;;;26.05;44.34
66547;BME280;53400;50.364;14.874;2023-06-01T08:16:49;98800.78;;;26.55;42.42
66547;BME280;53400;50.364;14.874;2023-06-01T08:19:56;98795.75;;;26.08;43.44
66547;BME280;53400;50.364;14.874;2023-06-01T08:22:35;98795.19;;;26.02;42.01
66547;BME280;53400;50.364;14.874;2023-06-01T08:25:07;98789.03;;;26.05;44.30
66547;BME280;53400;50.364;14.874;2023-06-01T08:28:00;98789.44;;;26.20;42.60
66547;BME280;53400;50.364;14.874;2023-06-01T08:30:27;98789.31;;;25.67;44.97
66547;BME280;53400;50.364;14.874;2023-06-01T08:33:11;98786.91;;;25.66;46.98
66547;BME280;53400;50.364;14.874;2023-06-01T08:36:12;98774.16;;;25.94;43.04
66547;BME280;53400;50.364;14.874;2023-06-01T08:42:30;98774.63;;;25.84;44.31
66547;BME280;53400;50.364;14.874;2023-06-01T08:45:17;98771.66;;;25.44;43.36
66547;BME280;53400;50.364;14.874;2023-06-01T08:48:06;98765.88;;;25.70;42.36
66547;BME280;53400;50.364;14.874;2023-06-01T08:51:19;98773.19;;;24.45;46.39
66547;BME280;53400;50.364;14.874;2023-06-01T08:53:54;98764.28;;;24.90;46.98
66547;BME280;53400;50.364;14.874;2023-06-01T08:56:43;98772.09;;;25.33;44.41
66547;BME280;53400;50.364;14.874;2023-06-01T08:59:20;98766.38;;;25.26;44.88
66547;BME280;53400;50.364;14.874;2023-06-01T09:02:05;98767.25;;;25.63;43.87
66547;BME280;53400;50.364;14.874;2023-06-01T09:04:40;98759.91;;;25.43;44.59
66547;BME280;53400;50.364;14.874;2023-06-01T09:07:40;98762.47;;;25.73;45.75
66547;BME280;53400;50.364;14.874;2023-06-01T09:12:56;98754.13;;;26.18;44.21
66547;BME280;53400;50.364;14.874;2023-06-01T09:16:01;98748.63;;;26.71;42.73
66547;BME280;53400;50.364;14.874;2023-06-01T09:19:40;98738.53;;;26.87;42.55
66547;BME280;53400;50.364;14.874;2023-06-01T09:26:11;98738.91;;;26.21;42.80
66547;BME280;53400;50.364;14.874;2023-06-01T09:29:18;98743.19;;;26.46;42.60
66547;BME280;53400;50.364;14.874;2023-06-01T09:31:51;98738.97;;;25.84;42.00
66547;BME280;53400;50.364;14.874;2023-06-01T09:34:27;98737.78;;;26.09;41.74
66547;BME280;53400;50.364;14.874;2023-06-01T09:37:06;98736.75;;;26.26;42.28
66547;BME280;53400;50.364;14.874;2023-06-01T09:39:40;98734.44;;;25.79;43.49
66547;BME280;53400;50.364;14.874;2023-06-01T09:42:11;98736.41;;;26.16;40.93
66547;BME280;53400;50.364;14.874;2023-06-01T09:44:42;98739.34;;;25.49;42.56
66547;BME280;53400;50.364;14.874;2023-06-01T09:47:14;98726.44;;;25.74;42.55
66547;BME280;53400;50.364;14.874;2023-06-01T09:49:47;98722.69;;;25.79;39.53
66547;BME280;53400;50.364;14.874;2023-06-01T09:52:28;98727.16;;;25.96;38.86
66547;BME280;53400;50.364;14.874;2023-06-01T09:56:05;98723.84;;;26.15;39.49
66547;BME280;53400;50.364;14.874;2023-06-01T09:59:45;98727.28;;;25.99;36.93
66547;BME280;53400;50.364;14.874;2023-06-01T10:02:18;98721.78;;;25.99;37.40
66547;BME280;53400;50.364;14.874;2023-06-01T10:05:24;98715.63;;;26.55;40.90
66547;BME280;53400;50.364;14.874;2023-06-01T10:08:17;98711.13;;;25.61;37.11
66547;BME280;53400;50.364;14.874;2023-06-01T10:11:12;98707.81;;;25.80;39.34
66547;BME280;53400;50.364;14.874;2023-06-01T10:14:08;98704.16;;;25.76;38.60
66547;BME280;53400;50.364;14.874;2023-06-01T10:17:09;98702.69;;;25.78;38.29
66547;BME280;53400;50.364;14.874;2023-06-01T10:19:56;98704.28;;;25.92;38.92
66547;BME280;53400;50.364;14.874;2023-06-01T10:23:01;98700.50;;;26.08;38.80
66547;BME280;53400;50.364;14.874;2023-06-01T10:26:09;98697.44;;;26.38;39.46
66547;BME280;53400;50.364;14.874;2023-06-01T10:28:51;98699.66;;;26.33;40.57
66547;BME280;53400;50.364;14.874;2023-06-01T10:31:36;98690.75;;;26.11;45.12
66547;BME280;53400;50.364;14.874;2023-06-01T10:34:15;98691.25;;;26.01;40.14
66547;BME280;53400;50.364;14.874;2023-06-01T10:37:15;98689.69;;;26.68;38.26
66547;BME280;53400;50.364;14.874;2023-06-01T10:39:45;98687.31;;;26.67;37.94
66547;BME280;53400;50.364;14.874;2023-06-01T10:42:46;98690.31;;;26.62;43.32
66547;BME280;53400;50.364;14.874;2023-06-01T10:48:54;98674.00;;;27.13;41.99
66547;BME280;53400;50.364;14.874;2023-06-01T10:51:40;98676.69;;;26.81;43.95
66547;BME280;53400;50.364;14.874;2023-06-01T10:54:40;98690.81;;;26.39;44.72
66547;BME280;53400;50.364;14.874;2023-06-01T10:57:21;98681.56;;;26.31;41.82
66547;BME280;53400;50.364;14.874;2023-06-01T11:00:15;98682.84;;;26.90;41.32
66547;BME280;53400;50.364;14.874;2023-06-01T11:03:00;98668.59;;;26.44;42.21
66547;BME280;53400;50.364;14.874;2023-06-01T11:05:49;98677.19;;;26.02;44.93
66547;BME280;53400;50.364;14.874;2023-06-01T11:09:04;98679.63;;;26.72;42.23
66547;BME280;53400;50.364;14.874;2023-06-01T11:12:00;98672.44;;;26.27;42.96
66547;BME280;53400;50.364;14.874;2023-06-01T11:15:14;98668.59;;;26.44;44.17
66547;BME280;53400;50.364;14.874;2023-06-01T11:20:57;98659.59;;;26.31;41.00
66547;BME280;53400;50.364;14.874;2023-06-01T11:23:50;98663.69;;;26.50;42.67
66547;BME280;53400;50.364;14.874;2023-06-01T11:33:54;98650.69;;;26.91;40.04
66547;BME280;53400;50.364;14.874;2023-06-01T11:36:52;98648.56;;;26.56;42.74
66547;BME280;53400;50.364;14.874;2023-06-01T11:40:14;98648.16;;;26.70;41.72
66547;BME280;53400;50.364;14.874;2023-06-01T11:42:51;98639.84;;;26.82;42.08
66547;BME280;53400;50.364;14.874;2023-06-01T11:45:59;98641.03;;;26.69;40.63
66547;BME280;53400;50.364;14.874;2023-06-01T11:48:30;98634.41;;;26.54;41.12
66547;BME280;53400;50.364;14.874;2023-06-01T11:51:28;98633.19;;;26.67;41.35
66547;BME280;53400;50.364;14.874;2023-06-01T11:54:35;98624.16;;;26.83;42.16
66547;BME280;53400;50.364;14.874;2023-06-01T11:57:29;98618.41;;;27.04;40.36
66547;BME280;53400;50.364;14.874;2023-06-01T12:00:57;98616.00;;;27.02;41.07
66547;BME280;53400;50.364;14.874;2023-06-01T12:03:49;98615.56;;;27.48;42.16
66547;BME280;53400;50.364;14.874;2023-06-01T12:13:25;98612.09;;;26.43;39.01
66547;BME280;53400;50.364;14.874;2023-06-01T12:16:21;98603.56;;;26.61;39.14
66547;BME280;53400;50.364;14.874;2023-06-01T12:19:30;98607.59;;;26.95;37.09
66547;BME280;53400;50.364;14.874;2023-06-01T12:22:22;98604.34;;;27.21;40.19
66547;BME280;53400;50.364;14.874;2023-06-01T12:25:28;98612.34;;;26.38;40.77
66547;BME280;53400;50.364;14.874;2023-06-01T12:28:50;98603.03;;;26.71;40.37
66547;BME280;53400;50.364;14.874;2023-06-01T12:32:15;98596.13;;;26.77;39.24
66547;BME280;53400;50.364;14.874;2023-06-01T12:35:14;98590.66;;;26.77;39.98
66547;BME280;53400;50.364;14.874;2023-06-01T12:38:49;98588.53;;;26.70;40.45
66547;BME280;53400;50.364;14.874;2023-06-01T12:42:05;98585.06;;;26.89;38.61
66547;BME280;53400;50.364;14.874;2023-06-01T12:45:28;98582.94;;;26.98;37.95
66547;BME280;53400;50.364;14.874;2023-06-01T12:48:49;98582.22;;;27.49;37.97
66547;BME280;53400;50.364;14.874;2023-06-01T12:52:10;98574.94;;;27.41;39.45
66547;BME280;53400;50.364;14.874;2023-06-01T12:55:10;98575.22;;;27.04;38.14
66547;BME280;53400;50.364;14.874;2023-06-01T12:57:59;98574.78;;;26.54;39.21
66547;BME280;53400;50.364;14.874;2023-06-01T13:00:50;98567.16;;;26.80;38.30
66547;BME280;53400;50.364;14.874;2023-06-01T13:03:43;98560.63;;;27.16;38.28
66547;BME280;53400;50.364;14.874;2023-06-01T13:06:48;98561.78;;;26.39;40.04
66547;BME280;53400;50.364;14.874;2023-06-01T13:09:55;98560.28;;;26.14;39.23
66547;BME280;53400;50.364;14.874;2023-06-01T13:12:33;98551.09;;;26.50;40.38
66547;BME280;53400;50.364;14.874;2023-06-01T13:19:15;98551.56;;;26.84;38.84
66547;BME280;53400;50.364;14.874;2023-06-01T13:22:07;98544.41;;;26.63;39.36
66547;BME280;53400;50.364;14.874;2023-06-01T13:25:25;98543.84;;;27.05;37.46
66547;BME280;53400;50.364;14.874;2023-06-01T13:28:53;98545.44;;;26.59;38.75
66547;BME280;53400;50.364;14.874;2023-06-01T13:36:39;98537.41;;;26.38;37.53
66547;BME280;53400;50.364;14.874;2023-06-01T13:39:25;98528.78;;;26.51;37.07
66547;BME280;53400;50.364;14.874;2023-06-01T13:42:29;98528.34;;;26.81;35.72
66547;BME280;53400;50.364;14.874;2023-06-01T13:45:13;98525.38;;;26.42;37.60
66547;BME280;53400;50.364;14.874;2023-06-01T13:47:56;98520.78;;;26.46;37.12
66547;BME280;53400;50.364;14.874;2023-06-01T13:50:26;98515.47;;;26.53;38.23
66547;BME280;53400;50.364;14.874;2023-06-01T13:53:34;98516.31;;;26.26;38.07
66547;BME280;53400;50.364;14.874;2023-06-01T13:56:25;98518.56;;;26.36;39.68
66547;BME280;53400;50.364;14.874;2023-06-01T13:59:29;98505.88;;;26.31;38.00
66547;BME280;53400;50.364;14.874;2023-06-01T14:02:27;98500.59;;;26.39;36.88
66547;BME280;53400;50.364;14.874;2023-06-01T14:05:15;98495.81;;;26.36;36.84
66547;BME280;53400;50.364;14.874;2023-06-01T14:08:14;98493.00;;;26.64;38.98
66547;BME280;53400;50.364;14.874;2023-06-01T14:11:02;98489.13;;;26.21;38.48
66547;BME280;53400;50.364;14.874;2023-06-01T14:13:38;98498.81;;;26.46;40.03
66547;BME280;53400;50.364;14.874;2023-06-01T14:16:38;98490.47;;;26.43;38.62
66547;BME280;53400;50.364;14.874;2023-06-01T14:19:46;98487.13;;;26.65;35.57
66547;BME280;53400;50.364;14.874;2023-06-01T14:22:26;98480.94;;;26.68;38.23
66547;BME280;53400;50.364;14.874;2023-06-01T14:27:58;98473.94;;;26.55;36.41
66547;BME280;53400;50.364;14.874;2023-06-01T14:30:53;98473.22;;;26.42;39.13
66547;BME280;53400;50.364;14.874;2023-06-01T14:33:37;98471.81;;;26.64;39.65
66547;BME280;53400;50.364;14.874;2023-06-01T14:36:29;98467.19;;;26.68;38.22
66547;BME280;53400;50.364;14.874;2023-06-01T14:39:07;98461.06;;;26.43;38.61
66547;BME280;53400;50.364;14.874;2023-06-01T14:41:34;98457.81;;;26.53;38.77
66547;BME280;53400;50.364;14.874;2023-06-01T14:44:04;98462.47;;;26.37;39.13
66547;BME280;53400;50.364;14.874;2023-06-01T14:46:33;98459.91;;;26.28;40.44
66547;BME280;53400;50.364;14.874;2023-06-01T14:49:02;98459.66;;;26.18;37.01
66547;BME280;53400;50.364;14.874;2023-06-01T14:51:31;98458.41;;;26.31;39.49
66547;BME280;53400;50.364;14.874;2023-06-01T14:54:05;98451.88;;;26.36;39.20